LZPP

Piešťany Airport

Piešťany, Slovakia (Slovak Republic)
TAF LZPP 210800Z 2109/2118 02004KT CAVOK BECMG 2111/2113 15006KT
Issued Valid From Valid To
Jan-21 @ 08:00 UTC
(2 hours ago)
Jan-21 @ 09:00 UTC
(49 minutes ago)
Jan-21 @ 18:00 UTC
(in 8 hours)
Jan-21 @ 09:00 to Jan-21 @ 11:00
TAF LZPP 210800Z 2109/2118 02004KT CAVOK
Wind Visibility Clouds Conditions
20° at 4 knots 10,000+ meters
  • No significant clouds
Becoming Jan-21 @ 11:00 to Jan-21 @ 18:00
BECMG 2111/2113 15006KT
Wind Visibility Clouds Conditions
150° at 6 knots 10,000+ meters
  • No significant clouds
TAF LZPP 210800Z 2109/2118 02004KT CAVOK BECMG 2111/2113 15006KT
Issued Jan-21 @ 08:00 UTC
(2 hours ago)
Valid From Jan-21 @ 09:00 UTC
(49 minutes ago)
Valid To Jan-21 @ 18:00 UTC
(in 8 hours)
Jan-21 @ 09:00 - Jan-21 @ 11:00
Wind Visibility
20° at 4 knots 10,000+ meters
Clouds
  • No significant clouds
Conditions
Becoming Jan-21 @ 11:00 - Jan-21 @ 18:00
Wind Visibility
150° at 6 knots 10,000+ meters
Clouds
  • No significant clouds
Conditions